Terminal Aerodrome Forecast
Issued by NWS

Home | Current Version | Previous Version | Text Only | Print | Product List | Glossary On
Versions: 1 2 3 4 5 6 7 8 9 10 11 12 13 14 15
617
FTUS42 TJSJ 191742
TAFJMZ
TAF
TJMZ 191742Z 1918/2018 04012KT P6SM VCSH SCT025 BKN040
     FM192200 06015KT P6SM VCSH SCT025 SCT120
     FM200600 01020G30KT 6SM TSRA SCT025CB BKN035
     FM201200 36030G54KT 1SM +TSRA SCT015 OVC025CB
      AMD NOT SKED=

USA.gov is the U.S. government's official web portal to all federal, state and local government web resources and services.